Time;durP1;ratioP1;P1;durP2;ratioP2;P2;SDS_P1;SDS_P2;PMS_P1;PMS_P2;Temp;Humidity;BMP_temperature;BMP_pressure;BME280_temperature;BME280_humidity;BME280_pressure;Samples;Min_cycle;Max_cycle;Signal;HPM_P1;HPM_P2
2023/09/11 00:01:33;;;;;;;29.80;18.85;;;21.00;99.90;;;;;;5088340;28;20044;-75
2023/09/11 00:03:59;;;;;;;29.73;17.17;;;21.00;99.90;;;;;;5088112;28;20040;-76
2023/09/11 00:06:25;;;;;;;26.13;18.05;;;20.90;99.90;;;;;;5096688;28;20064;-75
2023/09/11 00:08:52;;;;;;;27.52;17.77;;;20.90;99.90;;;;;;5057364;28;20036;-76
2023/09/11 00:11:18;;;;;;;27.17;18.15;;;20.90;99.90;;;;;;5082803;28;20040;-75
2023/09/11 00:13:43;;;;;;;30.88;17.98;;;20.80;99.90;;;;;;5087110;28;20117;-76
2023/09/11 00:16:09;;;;;;;25.38;18.52;;;20.80;99.90;;;;;;5089895;28;20483;-75
2023/09/11 00:18:35;;;;;;;31.48;19.10;;;20.80;99.90;;;;;;5089456;28;20075;-76
2023/09/11 00:21:01;;;;;;;32.92;19.48;;;20.70;99.90;;;;;;5091150;28;20507;-76
2023/09/11 00:23:27;;;;;;;28.50;19.90;;;20.70;99.90;;;;;;5090552;28;20083;-76
2023/09/11 00:25:52;;;;;;;27.85;19.77;;;20.70;99.90;;;;;;5078229;28;20051;-76
2023/09/11 00:28:18;;;;;;;29.63;18.92;;;20.60;99.90;;;;;;5093999;28;20401;-76
2023/09/11 00:30:44;;;;;;;28.88;19.83;;;20.60;99.90;;;;;;5086877;28;20048;-75
2023/09/11 00:33:10;;;;;;;29.42;20.10;;;20.60;99.90;;;;;;5090823;28;20040;-76
2023/09/11 00:35:36;;;;;;;25.48;19.73;;;20.60;99.90;;;;;;5089313;28;20089;-75
2023/09/11 00:38:02;;;;;;;32.85;19.85;;;20.60;99.90;;;;;;5093714;28;20040;-76
2023/09/11 00:40:28;;;;;;;28.75;19.45;;;20.60;99.90;;;;;;5089852;28;20040;-76
2023/09/11 00:42:53;;;;;;;30.92;19.80;;;20.50;99.90;;;;;;5117436;27;20032;-77
2023/09/11 00:45:19;;;;;;;27.05;19.20;;;20.60;99.90;;;;;;5089382;28;20469;-76
2023/09/11 00:47:47;;;;;;;27.58;18.58;;;20.50;99.90;;;;;;5082767;28;20044;-77
2023/09/11 00:50:16;;;;;;;31.92;18.48;;;20.50;99.90;;;;;;5091093;28;20104;-75
2023/09/11 00:52:43;;;;;;;30.67;20.13;;;20.50;99.90;;;;;;5092021;28;20044;-76
2023/09/11 00:55:09;;;;;;;28.08;19.08;;;20.40;99.90;;;;;;5091783;28;20036;-75
2023/09/11 00:57:35;;;;;;;24.52;19.55;;;20.40;99.90;;;;;;5084727;28;20036;-76
2023/09/11 01:00:03;;;;;;;25.35;19.98;;;20.40;99.90;;;;;;5092290;28;20106;-75
2023/09/11 01:02:29;;;;;;;29.75;18.83;;;20.40;99.90;;;;;;5088843;28;20040;-75
2023/09/11 01:04:55;;;;;;;26.77;19.15;;;20.40;99.90;;;;;;5084913;28;20039;-75
2023/09/11 01:07:20;;;;;;;30.75;20.25;;;20.30;99.90;;;;;;5084073;28;20439;-75
2023/09/11 01:09:46;;;;;;;31.38;20.05;;;20.30;99.90;;;;;;5122153;27;20068;-76
2023/09/11 01:12:12;;;;;;;31.33;18.83;;;20.30;99.90;;;;;;5095399;28;20036;-76
2023/09/11 01:14:38;;;;;;;28.10;19.27;;;20.30;99.90;;;;;;5096131;28;20041;-75
2023/09/11 01:17:15;;;;;;;29.60;19.90;;;20.30;99.90;;;;;;5074464;28;20478;-76
2023/09/11 01:20:18;;;;;;;34.35;19.75;;;20.30;99.90;;;;;;5078794;28;20124;-75
2023/09/11 01:23:09;;;;;;;28.02;20.08;;;20.30;99.90;;;;;;5084108;28;20064;-76
2023/09/11 01:26:03;;;;;;;33.90;21.90;;;20.20;99.90;;;;;;5090265;28;20515;-75
2023/09/11 01:28:50;;;;;;;35.08;19.98;;;20.20;99.90;;;;;;5088138;28;20044;-76
2023/09/11 01:31:17;;;;;;;31.73;20.15;;;20.20;99.90;;;;;;5086950;28;20039;-76
2023/09/11 01:33:43;;;;;;;29.55;20.10;;;20.20;99.90;;;;;;5080674;28;20039;-77
2023/09/11 01:36:09;;;;;;;32.25;20.48;;;20.20;99.90;;;;;;5093679;28;20503;-76
2023/09/11 01:38:35;;;;;;;26.70;19.58;;;20.20;99.90;;;;;;5091421;28;20043;-76
2023/09/11 01:41:04;;;;;;;31.50;21.25;;;20.10;99.90;;;;;;5083680;28;20082;-76
2023/09/11 01:43:33;;;;;;;31.85;20.52;;;20.10;99.90;;;;;;5083626;28;20083;-76
2023/09/11 01:46:02;;;;;;;37.40;21.75;;;20.10;99.90;;;;;;5088231;28;20040;-75
2023/09/11 01:48:30;;;;;;;34.58;19.30;;;20.10;99.90;;;;;;5090138;28;20044;-77
2023/09/11 01:50:57;;;;;;;29.63;19.70;;;20.10;99.90;;;;;;5087952;28;20497;-77
2023/09/11 01:53:24;;;;;;;27.45;19.83;;;20.00;99.90;;;;;;5099358;27;20040;-77
2023/09/11 01:55:50;;;;;;;25.98;19.15;;;20.00;99.90;;;;;;5082532;28;20047;-76
2023/09/11 01:58:16;;;;;;;33.65;20.95;;;20.00;99.90;;;;;;5094349;28;20036;-76
2023/09/11 02:00:42;;;;;;;26.90;20.90;;;20.00;99.90;;;;;;5088456;28;20509;-76
2023/09/11 02:03:09;;;;;;;30.40;19.08;;;20.00;99.90;;;;;;5094498;28;20032;-74
2023/09/11 02:05:35;;;;;;;28.17;20.27;;;20.00;99.90;;;;;;5080893;28;20044;-75
2023/09/11 02:08:01;;;;;;;24.13;19.52;;;20.00;99.90;;;;;;5068119;28;20043;-77
2023/09/11 02:10:27;;;;;;;34.60;20.42;;;19.90;99.90;;;;;;5101646;27;20048;-76
2023/09/11 02:12:52;;;;;;;28.42;20.77;;;19.90;99.90;;;;;;5117482;27;20051;-76
2023/09/11 02:15:20;;;;;;;28.33;20.08;;;19.90;99.90;;;;;;5084127;28;20051;-76
2023/09/11 02:17:45;;;;;;;27.10;19.60;;;19.90;99.90;;;;;;5110836;28;20052;-76
2023/09/11 02:20:12;;;;;;;29.23;19.17;;;19.90;99.90;;;;;;5094208;28;20036;-75
2023/09/11 02:22:41;;;;;;;33.63;19.63;;;19.90;99.90;;;;;;5092329;28;20406;-75
2023/09/11 02:25:08;;;;;;;30.25;19.02;;;19.90;99.90;;;;;;5089825;28;20056;-76
2023/09/11 02:27:34;;;;;;;37.53;20.25;;;19.90;99.90;;;;;;5081693;28;20102;-76
2023/09/11 02:29:59;;;;;;;32.75;19.58;;;19.80;99.90;;;;;;5092239;28;20044;-76
2023/09/11 02:32:25;;;;;;;31.25;18.67;;;19.80;99.90;;;;;;5092156;28;20048;-75
2023/09/11 02:34:50;;;;;;;34.08;20.73;;;19.90;99.90;;;;;;5078653;28;20036;-75
2023/09/11 02:37:16;;;;;;;32.85;20.50;;;19.80;99.90;;;;;;5087468;28;20478;-76
2023/09/11 02:39:46;;;;;;;37.17;20.98;;;19.90;99.90;;;;;;5091424;28;20509;-75
2023/09/11 02:42:13;;;;;;;28.02;19.85;;;19.80;99.90;;;;;;5085866;28;20051;-75
2023/09/11 02:44:43;;;;;;;29.38;20.55;;;19.80;99.90;;;;;;5086916;28;20398;-75
2023/09/11 02:47:08;;;;;;;34.10;19.47;;;19.80;99.90;;;;;;5084860;28;20055;-76
2023/09/11 02:49:34;;;;;;;26.33;19.33;;;19.80;99.90;;;;;;5084582;28;20771;-75
2023/09/11 02:52:00;;;;;;;27.65;18.35;;;19.80;99.90;;;;;;5081769;28;20047;-76
2023/09/11 02:54:25;;;;;;;27.48;18.98;;;19.80;99.90;;;;;;5090851;28;20154;-76
2023/09/11 02:56:51;;;;;;;33.00;18.73;;;19.80;99.90;;;;;;5097108;28;20043;-76
2023/09/11 02:59:17;;;;;;;27.27;16.85;;;19.80;99.90;;;;;;5086734;28;20090;-75
2023/09/11 03:01:43;;;;;;;30.40;17.23;;;19.80;99.90;;;;;;5093672;28;20056;-76
2023/09/11 03:04:08;;;;;;;32.35;16.30;;;19.80;99.90;;;;;;5068532;28;20051;-75
2023/09/11 03:06:34;;;;;;;27.98;15.35;;;19.80;99.90;;;;;;5071878;28;20100;-77
2023/09/11 03:09:00;;;;;;;27.15;14.57;;;19.80;99.90;;;;;;5090762;28;20109;-75
2023/09/11 03:11:25;;;;;;;28.42;15.48;;;19.80;99.90;;;;;;5086914;28;20430;-75
2023/09/11 03:13:51;;;;;;;27.65;14.65;;;19.80;99.90;;;;;;5096824;28;20401;-76
2023/09/11 03:16:17;;;;;;;23.98;14.43;;;19.80;99.90;;;;;;5096769;28;20051;-75
2023/09/11 03:18:42;;;;;;;29.60;14.73;;;19.80;99.90;;;;;;5089884;28;20040;-76
2023/09/11 03:21:08;;;;;;;32.05;15.13;;;19.80;99.90;;;;;;5082724;28;20048;-76
2023/09/11 03:23:34;;;;;;;24.42;14.70;;;19.80;99.90;;;;;;5100884;28;20055;-76
2023/09/11 03:26:01;;;;;;;26.88;14.82;;;19.80;99.90;;;;;;5090791;28;20524;-76
2023/09/11 03:28:30;;;;;;;26.02;14.52;;;19.80;99.90;;;;;;5085095;28;20052;-75
2023/09/11 03:30:57;;;;;;;26.70;15.27;;;19.80;99.90;;;;;;5100992;28;20162;-75
2023/09/11 03:33:23;;;;;;;28.98;14.57;;;19.80;99.90;;;;;;5085477;28;20366;-76
2023/09/11 03:35:49;;;;;;;26.17;13.70;;;19.80;99.90;;;;;;5086907;28;20123;-75
2023/09/11 03:38:15;;;;;;;28.02;14.50;;;19.80;99.90;;;;;;5069180;28;20124;-76
2023/09/11 03:40:43;;;;;;;31.42;13.98;;;19.80;99.90;;;;;;5092189;28;20040;-75
2023/09/11 03:43:09;;;;;;;29.33;15.13;;;19.70;99.90;;;;;;5086744;28;20048;-77
2023/09/11 03:45:35;;;;;;;28.63;14.48;;;19.80;99.90;;;;;;5092496;28;20060;-76
2023/09/11 03:48:00;;;;;;;24.23;14.32;;;19.70;99.90;;;;;;5091135;28;20052;-76
2023/09/11 03:50:26;;;;;;;27.55;14.20;;;19.70;99.90;;;;;;5089567;28;20067;-75
2023/09/11 03:52:52;;;;;;;27.35;15.15;;;19.70;99.90;;;;;;5094422;28;20420;-75
2023/09/11 03:55:18;;;;;;;26.05;15.02;;;19.70;99.90;;;;;;5091718;28;20092;-76
2023/09/11 03:57:43;;;;;;;31.40;15.57;;;19.70;99.90;;;;;;5098983;28;20039;-76
2023/09/11 04:00:11;;;;;;;34.83;15.60;;;19.70;99.90;;;;;;5088930;28;20042;-76
2023/09/11 04:02:38;;;;;;;26.25;15.13;;;19.70;99.90;;;;;;5119534;27;20097;-75
2023/09/11 04:05:04;;;;;;;28.05;15.40;;;19.70;99.90;;;;;;5085020;28;20045;-77
2023/09/11 04:07:32;;;;;;;32.95;15.73;;;19.70;99.90;;;;;;5098556;28;20121;-76
2023/09/11 04:09:58;;;;;;;33.47;16.45;;;19.70;99.90;;;;;;5099747;28;20463;-75
2023/09/11 04:12:24;;;;;;;33.00;15.75;;;19.60;99.90;;;;;;5096879;28;20057;-75
2023/09/11 04:14:53;;;;;;;36.67;15.85;;;19.60;99.90;;;;;;5097199;28;20044;-76
2023/09/11 04:17:19;;;;;;;31.15;15.27;;;19.60;99.90;;;;;;5098052;28;20056;-76
2023/09/11 04:19:44;;;;;;;26.08;16.10;;;19.50;99.90;;;;;;5087317;28;20036;-76
2023/09/11 04:22:11;;;;;;;30.50;15.25;;;19.60;99.90;;;;;;5095587;28;20044;-75
2023/09/11 04:24:36;;;;;;;27.73;15.60;;;19.60;99.90;;;;;;5099385;28;20490;-76
2023/09/11 04:27:02;;;;;;;32.70;17.52;;;19.60;99.90;;;;;;5088128;28;20033;-76
2023/09/11 04:29:33;;;;;;;34.17;16.27;;;19.60;99.90;;;;;;5091380;28;20093;-76
2023/09/11 04:31:59;;;;;;;30.45;16.17;;;19.60;99.90;;;;;;5081960;28;20037;-76
2023/09/11 04:34:25;;;;;;;30.30;16.58;;;19.60;99.90;;;;;;5084938;28;20036;-77
2023/09/11 04:36:51;;;;;;;29.33;16.75;;;19.50;99.90;;;;;;5088788;28;20580;-77
2023/09/11 04:39:17;;;;;;;31.33;16.17;;;19.50;99.90;;;;;;5103856;28;20490;-77
2023/09/11 04:41:43;;;;;;;28.48;16.55;;;19.50;99.90;;;;;;5085628;28;20051;-76
2023/09/11 04:44:08;;;;;;;31.35;16.55;;;19.50;99.90;;;;;;5070802;28;20047;-75
2023/09/11 04:46:34;;;;;;;32.83;16.83;;;19.60;99.90;;;;;;5097345;28;20135;-76
2023/09/11 04:49:00;;;;;;;27.77;16.60;;;19.50;99.90;;;;;;5084322;28;20107;-76
2023/09/11 04:51:26;;;;;;;30.02;16.20;;;19.50;99.90;;;;;;5095189;28;20068;-75
2023/09/11 04:53:51;;;;;;;33.13;16.98;;;19.50;99.90;;;;;;5089073;28;20071;-77
2023/09/11 04:56:17;;;;;;;33.42;15.95;;;19.40;99.90;;;;;;5074091;28;20517;-77
2023/09/11 04:58:43;;;;;;;38.35;17.13;;;19.40;99.90;;;;;;5097379;28;20480;-76
2023/09/11 05:01:08;;;;;;;37.05;16.35;;;19.40;99.90;;;;;;5084301;28;20067;-75
2023/09/11 05:03:34;;;;;;;29.70;16.05;;;19.40;99.90;;;;;;5080343;28;20036;-77
2023/09/11 05:06:03;;;;;;;33.08;16.30;;;19.40;99.90;;;;;;5092831;28;20075;-76
2023/09/11 05:08:29;;;;;;;29.77;15.35;;;19.40;99.90;;;;;;5087864;28;20443;-77
2023/09/11 05:10:55;;;;;;;29.30;15.70;;;19.40;99.90;;;;;;5096197;28;20073;-77
2023/09/11 05:13:20;;;;;;;31.45;15.38;;;19.40;99.90;;;;;;5093670;28;20451;-75
2023/09/11 05:15:48;;;;;;;31.35;16.48;;;19.40;99.90;;;;;;5071151;28;20036;-77
2023/09/11 05:18:14;;;;;;;36.35;15.73;;;19.40;99.90;;;;;;5094060;28;20112;-76
2023/09/11 05:20:40;;;;;;;23.40;15.18;;;19.40;99.90;;;;;;5087657;28;21237;-77
2023/09/11 05:23:06;;;;;;;27.67;16.38;;;19.40;99.90;;;;;;5072098;28;20614;-78
2023/09/11 05:25:32;;;;;;;39.92;17.30;;;19.40;99.90;;;;;;5089430;28;20071;-77
2023/09/11 05:27:57;;;;;;;32.88;16.13;;;19.40;99.90;;;;;;5090567;28;20071;-78
2023/09/11 05:30:23;;;;;;;26.10;15.23;;;19.50;99.90;;;;;;5078297;28;20036;-76
2023/09/11 05:32:52;;;;;;;33.03;15.98;;;19.50;99.90;;;;;;5090020;28;20375;-76
2023/09/11 05:35:19;;;;;;;31.23;16.33;;;19.50;99.90;;;;;;5083066;28;20043;-77
2023/09/11 05:37:45;;;;;;;32.90;16.75;;;19.60;99.90;;;;;;5084939;28;20155;-76
2023/09/11 05:40:11;;;;;;;34.40;16.65;;;19.60;99.90;;;;;;5085884;28;20127;-76
2023/09/11 05:42:36;;;;;;;28.63;16.42;;;19.60;99.90;;;;;;5091607;28;20040;-75
2023/09/11 05:45:05;;;;;;;30.02;16.77;;;19.60;99.90;;;;;;5080106;28;21459;-77
2023/09/11 05:47:31;;;;;;;28.80;14.98;;;19.60;99.90;;;;;;5086561;28;20056;-77
2023/09/11 05:50:00;;;;;;;30.75;15.75;;;19.60;99.90;;;;;;5085715;28;20059;-74
2023/09/11 05:52:29;;;;;;;29.63;15.50;;;19.70;99.90;;;;;;5083328;28;20411;-76
2023/09/11 05:54:55;;;;;;;33.22;15.27;;;19.70;99.90;;;;;;5067740;28;20044;-75
2023/09/11 05:57:23;;;;;;;32.10;14.43;;;19.70;99.90;;;;;;5082010;28;20123;-75
2023/09/11 05:59:50;;;;;;;42.40;15.75;;;19.70;99.90;;;;;;5074011;28;20119;-77
2023/09/11 06:02:15;;;;;;;29.73;15.10;;;19.80;99.90;;;;;;5089415;28;20040;-75
2023/09/11 06:04:41;;;;;;;31.67;14.43;;;19.80;99.90;;;;;;5079889;28;20040;-76
2023/09/11 06:07:07;;;;;;;29.10;14.43;;;19.80;99.90;;;;;;5071015;28;20055;-76
2023/09/11 06:09:32;;;;;;;32.22;14.93;;;19.90;99.90;;;;;;5088160;28;20036;-76
2023/09/11 06:11:58;;;;;;;31.70;14.90;;;19.90;99.90;;;;;;5082547;28;20108;-75
2023/09/11 06:14:24;;;;;;;31.15;14.05;;;20.00;99.90;;;;;;5067243;28;20079;-76
2023/09/11 06:16:50;;;;;;;35.25;14.98;;;20.00;99.90;;;;;;5089476;28;20041;-76
2023/09/11 06:19:16;;;;;;;30.17;15.18;;;20.10;99.90;;;;;;5088566;28;20036;-76
2023/09/11 06:21:45;;;;;;;31.83;14.00;;;20.20;99.90;;;;;;5075836;28;20036;-75
2023/09/11 06:24:11;;;;;;;26.20;13.82;;;20.20;99.90;;;;;;5092748;28;20040;-76
2023/09/11 06:26:37;;;;;;;28.45;14.60;;;20.30;99.90;;;;;;5092087;28;20048;-75
2023/09/11 06:29:03;;;;;;;35.17;14.40;;;20.40;99.90;;;;;;5080466;28;20044;-76
2023/09/11 06:31:30;;;;;;;33.67;13.57;;;20.60;99.90;;;;;;5077578;28;20384;-76
2023/09/11 06:33:56;;;;;;;32.83;15.10;;;20.70;99.90;;;;;;5078223;28;20045;-75
2023/09/11 06:36:22;;;;;;;31.77;14.00;;;20.70;99.90;;;;;;5088439;28;20104;-76
2023/09/11 06:38:48;;;;;;;22.33;12.82;;;20.70;99.90;;;;;;5095710;28;20035;-75
2023/09/11 06:41:16;;;;;;;27.30;12.90;;;20.80;99.90;;;;;;5099657;28;20115;-75
2023/09/11 06:43:42;;;;;;;24.15;13.63;;;20.80;99.90;;;;;;5097879;28;20048;-75
2023/09/11 06:46:08;;;;;;;26.10;13.07;;;21.00;99.90;;;;;;5084452;28;20036;-77
2023/09/11 06:48:34;;;;;;;29.23;12.50;;;21.10;99.90;;;;;;5102523;28;20044;-75
2023/09/11 06:50:59;;;;;;;25.85;13.10;;;21.30;99.90;;;;;;5098238;28;20043;-75
2023/09/11 06:53:25;;;;;;;30.52;12.70;;;21.50;99.90;;;;;;5089465;28;20039;-76
2023/09/11 06:55:51;;;;;;;20.92;11.07;;;21.80;99.90;;;;;;5099315;28;20064;-76
2023/09/11 06:58:17;;;;;;;23.90;11.32;;;22.30;99.90;;;;;;5097981;28;20052;-76
2023/09/11 07:00:43;;;;;;;33.60;11.70;;;22.70;99.90;;;;;;5095170;28;20057;-75
2023/09/11 07:03:09;;;;;;;20.88;11.55;;;22.90;99.90;;;;;;5069322;28;20044;-75
2023/09/11 07:05:36;;;;;;;28.40;11.82;;;23.00;99.90;;;;;;5095639;28;20044;-76
2023/09/11 07:08:02;;;;;;;21.90;11.43;;;23.10;99.90;;;;;;5090622;28;20040;-76
2023/09/11 07:10:28;;;;;;;23.95;12.45;;;23.00;99.90;;;;;;5089836;28;20053;-77
2023/09/11 07:12:53;;;;;;;36.97;12.95;;;23.00;99.90;;;;;;5089722;28;20123;-76
2023/09/11 07:15:19;;;;;;;22.98;10.77;;;23.00;99.90;;;;;;5085031;28;20068;-77
2023/09/11 07:17:48;;;;;;;26.70;11.10;;;23.10;99.90;;;;;;5086512;28;20143;-75
2023/09/11 07:20:14;;;;;;;22.27;12.50;;;23.10;99.90;;;;;;5098344;28;20040;-76
2023/09/11 07:22:40;;;;;;;32.00;11.07;;;23.20;99.90;;;;;;5097890;28;20093;-75
2023/09/11 07:25:11;;;;;;;22.02;11.45;;;23.30;99.90;;;;;;5102002;28;20061;-76
2023/09/11 07:27:37;;;;;;;23.50;10.55;;;23.40;99.90;;;;;;5094295;28;20044;-75
2023/09/11 07:30:08;;;;;;;22.27;11.25;;;23.40;99.90;;;;;;5082032;28;20107;-75
2023/09/11 07:32:34;;;;;;;22.70;11.23;;;23.50;99.90;;;;;;5097577;28;20030;-74
2023/09/11 07:35:03;;;;;;;23.02;11.95;;;23.60;99.90;;;;;;5100850;28;20052;-75
2023/09/11 07:37:29;;;;;;;26.58;10.80;;;23.70;99.90;;;;;;5072562;28;20131;-74
2023/09/11 07:39:55;;;;;;;19.35;10.48;;;23.80;99.90;;;;;;5085653;28;20501;-75
2023/09/11 07:42:21;;;;;;;27.33;10.43;;;23.80;99.90;;;;;;5097717;28;20032;-77
2023/09/11 07:44:46;;;;;;;22.63;10.10;;;23.90;99.90;;;;;;5134218;27;20048;-77
2023/09/11 07:47:12;;;;;;;22.13;9.95;;;24.00;99.90;;;;;;5092882;28;20039;-75
2023/09/11 07:49:38;;;;;;;21.25;10.90;;;24.10;99.90;;;;;;5077768;28;20064;-75
2023/09/11 07:52:04;;;;;;;26.45;10.70;;;24.20;99.90;;;;;;5080942;28;20068;-76
2023/09/11 07:54:30;;;;;;;28.05;10.13;;;24.30;99.90;;;;;;5095435;28;20055;-76
2023/09/11 07:56:55;;;;;;;30.58;10.23;;;24.50;99.90;;;;;;5091611;28;20449;-77
2023/09/11 07:59:21;;;;;;;24.73;10.00;;;24.60;99.90;;;;;;5090811;28;20094;-77
2023/09/11 08:01:46;;;;;;;28.15;9.70;;;24.70;99.90;;;;;;5094093;28;20036;-76
2023/09/11 08:04:12;;;;;;;27.88;9.88;;;24.90;99.90;;;;;;5096541;28;20171;-76
2023/09/11 08:06:38;;;;;;;26.98;9.95;;;25.00;99.90;;;;;;5091995;28;20119;-76
2023/09/11 08:09:03;;;;;;;24.67;9.88;;;25.10;99.90;;;;;;5082116;28;20037;-76
2023/09/11 08:11:31;;;;;;;29.08;9.38;;;25.20;99.90;;;;;;5095899;28;20119;-76
2023/09/11 08:13:57;;;;;;;21.98;9.05;;;25.30;99.90;;;;;;5079535;28;20036;-75
2023/09/11 08:16:23;;;;;;;16.40;8.13;;;25.30;99.90;;;;;;5089276;28;20597;-75
2023/09/11 08:18:49;;;;;;;22.02;9.00;;;25.40;99.90;;;;;;5094792;28;20078;-75
2023/09/11 08:21:14;;;;;;;25.33;8.68;;;25.50;99.90;;;;;;5083324;28;20047;-75
2023/09/11 08:23:44;;;;;;;23.45;7.72;;;25.60;99.90;;;;;;5089929;28;20040;-74
2023/09/11 08:26:10;;;;;;;21.70;8.65;;;25.80;99.90;;;;;;5079871;28;20049;-75
2023/09/11 08:28:37;;;;;;;21.60;7.97;;;26.00;99.90;;;;;;5085313;28;20039;-76
2023/09/11 08:31:03;;;;;;;26.52;8.07;;;26.10;99.90;;;;;;5083536;28;21620;-76
2023/09/11 08:33:29;;;;;;;22.02;7.88;;;26.20;99.90;;;;;;5088066;28;20044;-75
2023/09/11 08:35:55;;;;;;;16.02;7.28;;;26.30;99.90;;;;;;5091876;28;20094;-75
2023/09/11 08:38:21;;;;;;;22.55;8.50;;;26.50;99.90;;;;;;5090505;28;20040;-75
2023/09/11 08:40:47;;;;;;;15.63;7.47;;;26.60;99.90;;;;;;5088510;28;20036;-76
2023/09/11 08:43:13;;;;;;;14.38;6.93;;;26.80;99.90;;;;;;5090457;28;20036;-74
2023/09/11 08:45:40;;;;;;;20.92;8.05;;;26.90;99.90;;;;;;5089890;28;20036;-76
2023/09/11 08:48:13;;;;;;;16.67;6.82;;;27.10;99.90;;;;;;5085567;28;20036;-76
2023/09/11 08:50:52;;;;;;;21.77;8.30;;;27.20;99.90;;;;;;5097235;28;20134;-76
2023/09/11 08:53:20;;;;;;;16.75;7.10;;;27.40;99.90;;;;;;5085749;28;20120;-76
2023/09/11 08:55:50;;;;;;;19.52;7.15;;;27.50;99.90;;;;;;5092787;28;20048;-76
2023/09/11 08:58:20;;;;;;;16.23;6.53;;;27.50;99.90;;;;;;5092797;28;20375;-76
2023/09/11 09:00:46;;;;;;;16.38;6.50;;;27.60;99.90;;;;;;5084879;28;20451;-77
2023/09/11 09:03:13;;;;;;;25.77;8.90;;;27.70;99.90;;;;;;5090807;28;20033;-76
2023/09/11 09:05:40;;;;;;;22.83;7.00;;;27.70;99.90;;;;;;5094219;28;20122;-75
2023/09/11 09:08:08;;;;;;;17.55;6.68;;;27.80;99.90;;;;;;5084300;28;20123;-76
2023/09/11 09:10:34;;;;;;;21.33;7.68;;;27.90;99.90;;;;;;5110700;27;20040;-75
2023/09/11 09:13:00;;;;;;;24.52;7.68;;;28.00;99.90;;;;;;5084092;28;20351;-76
2023/09/11 09:15:28;;;;;;;22.52;8.30;;;28.00;99.90;;;;;;5082269;28;20036;-75
2023/09/11 09:17:54;;;;;;;19.73;7.38;;;28.00;99.90;;;;;;5087160;28;20040;-75
2023/09/11 09:20:20;;;;;;;16.03;6.73;;;28.00;99.90;;;;;;5114287;28;20443;-76
2023/09/11 09:22:52;;;;;;;34.88;8.95;;;28.10;99.90;;;;;;5085544;27;20048;-76
2023/09/11 09:25:18;;;;;;;21.65;7.57;;;28.20;99.90;;;;;;5088081;28;20047;-76
2023/09/11 09:27:44;;;;;;;22.05;7.10;;;28.30;99.90;;;;;;5081117;28;20032;-75
2023/09/11 09:30:19;;;;;;;20.20;6.78;;;28.30;99.90;;;;;;5092300;28;20040;-76
2023/09/11 09:32:47;;;;;;;13.93;6.85;;;28.40;99.90;;;;;;5081509;28;20041;-76
2023/09/11 09:35:13;;;;;;;13.65;6.75;;;28.40;99.90;;;;;;5094044;28;20047;-75
2023/09/11 09:37:39;;;;;;;20.75;6.78;;;28.50;99.90;;;;;;5093007;28;20040;-75
2023/09/11 09:40:06;;;;;;;15.82;7.60;;;28.50;99.90;;;;;;5088854;28;20085;-74
2023/09/11 09:42:42;;;;;;;18.13;7.63;;;28.60;99.90;;;;;;5089168;28;20044;-74
2023/09/11 09:45:08;;;;;;;14.32;7.07;;;28.70;99.90;;;;;;5084328;28;20089;-75
2023/09/11 09:47:33;;;;;;;14.90;7.10;;;28.80;99.90;;;;;;5083687;28;20144;-76
2023/09/11 09:50:01;;;;;;;21.58;7.55;;;28.90;99.90;;;;;;5092528;28;20040;-76
2023/09/11 09:52:30;;;;;;;15.18;7.18;;;29.00;99.90;;;;;;5091210;28;20040;-75
2023/09/11 09:55:03;;;;;;;17.55;8.02;;;29.10;99.90;;;;;;5084617;28;20036;-75
2023/09/11 09:57:29;;;;;;;18.40;7.13;;;29.20;99.70;;;;;;5092130;28;20122;-75
2023/09/11 09:59:57;;;;;;;17.30;7.82;;;29.30;99.40;;;;;;5072424;28;20174;-75
2023/09/11 10:02:37;;;;;;;17.10;6.82;;;29.40;99.50;;;;;;5090026;28;20044;-75
2023/09/11 10:05:08;;;;;;;20.20;7.82;;;29.60;99.40;;;;;;5095361;28;20047;-74
2023/09/11 10:07:45;;;;;;;23.92;7.55;;;29.70;99.20;;;;;;5090257;28;20124;-76
2023/09/11 10:10:30;;;;;;;18.88;7.35;;;29.80;98.80;;;;;;5092680;28;20055;-76
2023/09/11 10:13:07;;;;;;;17.73;7.50;;;30.00;98.50;;;;;;5082474;28;20406;-75
2023/09/11 10:15:38;;;;;;;16.65;7.13;;;30.10;97.70;;;;;;5083969;28;20071;-76
2023/09/11 10:18:05;;;;;;;12.07;7.38;;;30.30;98.40;;;;;;5082830;28;20550;-76
2023/09/11 10:20:31;;;;;;;;;;;30.40;98.40;;;;;;5080038;28;20051;-75
2023/09/11 10:23:00;;;;;;;15.77;7.65;;;30.60;97.80;;;;;;5086501;28;19928;-75
2023/09/11 10:25:28;;;;;;;19.20;7.70;;;30.80;98.20;;;;;;5081863;28;20032;-76
2023/09/11 10:28:02;;;;;;;15.93;7.07;;;31.00;97.30;;;;;;5082855;28;20043;-76
2023/09/11 10:30:44;;;;;;;14.48;8.80;;;31.00;97.30;;;;;;5084564;28;20154;-74
2023/09/11 10:33:20;;;;;;;19.67;7.28;;;31.20;96.60;;;;;;5073039;28;20049;-76
2023/09/11 10:35:50;;;;;;;16.63;7.93;;;31.40;96.70;;;;;;5084871;28;20044;-76
2023/09/11 10:38:16;;;;;;;15.82;7.57;;;31.50;96.60;;;;;;5089894;28;20052;-74
2023/09/11 10:40:43;;;;;;;16.77;8.45;;;31.70;96.30;;;;;;5067263;28;20090;-76
2023/09/11 10:43:09;;;;;;;;;;;31.70;95.10;;;;;;5121742;28;20090;-75
2023/09/11 10:45:36;;;;;;;20.25;7.47;;;31.70;94.90;;;;;;5081803;28;19995;-76
2023/09/11 10:48:02;;;;;;;;;;;31.70;95.00;;;;;;5113960;28;20036;-77
2023/09/11 10:50:36;;;;;;;15.00;8.05;;;31.80;94.90;;;;;;5079196;28;19943;-75
2023/09/11 10:53:05;;;;;;;18.25;8.68;;;31.90;94.80;;;;;;5089076;28;20048;-74
2023/09/11 10:55:32;;;;;;;13.13;7.20;;;32.10;94.80;;;;;;5094135;28;20178;-76
2023/09/11 10:57:58;;;;;;;14.73;8.18;;;32.20;95.20;;;;;;5085630;28;20445;-76
2023/09/11 11:00:26;;;;;;;20.70;8.05;;;32.30;95.50;;;;;;5095562;28;20071;-77
2023/09/11 11:02:52;;;;;;;15.23;9.07;;;32.40;95.30;;;;;;5085626;28;20068;-76
2023/09/11 11:05:19;;;;;;;21.17;9.43;;;32.60;95.10;;;;;;5083799;28;20044;-75
2023/09/11 11:07:49;;;;;;;29.05;9.82;;;32.70;94.80;;;;;;5086078;28;20072;-77
2023/09/11 11:10:16;;;;;;;17.60;8.88;;;32.80;94.50;;;;;;5087828;28;20069;-76
2023/09/11 11:12:44;;;;;;;12.75;9.23;;;32.90;94.50;;;;;;5082829;28;20044;-77
2023/09/11 11:15:24;;;;;;;16.33;8.88;;;33.20;94.00;;;;;;5118491;27;20048;-77
2023/09/11 11:18:26;;;;;;;18.60;9.50;;;33.30;93.10;;;;;;5084141;28;20526;-76
2023/09/11 11:21:02;;;;;;;18.15;8.73;;;33.50;92.20;;;;;;5088020;28;20554;-75
2023/09/11 11:23:30;;;;;;;17.08;8.77;;;33.70;93.00;;;;;;5091329;28;20057;-76
2023/09/11 11:26:04;;;;;;;17.17;8.18;;;33.80;92.60;;;;;;5088180;28;20047;-75
2023/09/11 11:28:45;;;;;;;15.88;8.35;;;33.80;92.10;;;;;;5079336;28;20091;-76
2023/09/11 11:31:18;;;;;;;19.08;8.02;;;33.90;91.50;;;;;;5082445;28;20570;-76
2023/09/11 11:33:49;;;;;;;16.45;7.90;;;33.70;92.10;;;;;;5096122;28;20039;-76
2023/09/11 11:36:17;;;;;;;10.35;9.15;;;33.70;92.20;;;;;;5095715;28;20048;-74
2023/09/11 11:38:43;;;;;;;16.88;9.23;;;33.70;91.30;;;;;;5096516;28;20555;-75
2023/09/11 11:41:10;;;;;;;20.92;8.60;;;33.50;91.30;;;;;;5095997;28;20059;-74
2023/09/11 11:43:36;;;;;;;14.85;7.45;;;33.30;91.60;;;;;;5084001;28;20052;-75
2023/09/11 11:46:05;;;;;;;14.80;8.55;;;33.20;92.20;;;;;;5091988;28;20041;-77
2023/09/11 11:48:33;;;;;;;13.07;6.80;;;33.20;91.30;;;;;;5091635;28;20044;-76
2023/09/11 11:50:59;;;;;;;15.82;7.43;;;33.30;91.70;;;;;;5089430;28;20044;-75
2023/09/11 11:53:25;;;;;;;14.03;7.60;;;33.30;91.60;;;;;;5086639;28;20401;-75
2023/09/11 11:55:54;;;;;;;21.88;8.68;;;33.30;92.00;;;;;;5093905;28;20032;-76
2023/09/11 11:58:21;;;;;;;14.40;8.20;;;33.50;92.00;;;;;;5100086;28;20036;-76
2023/09/11 12:00:59;;;;;;;;;;;33.60;91.90;;;;;;5092808;28;20036;-76
2023/09/11 12:03:34;;;;;;;11.30;6.68;;;33.90;91.80;;;;;;5093734;28;19919;-75
2023/09/11 12:06:03;;;;;;;10.45;6.95;;;34.00;89.40;;;;;;5091142;28;21577;-74
2023/09/11 12:08:29;;;;;;;18.92;7.30;;;34.20;89.70;;;;;;5092060;28;20127;-76
2023/09/11 12:10:55;;;;;;;12.33;6.97;;;34.30;90.00;;;;;;5084532;28;20079;-74
2023/09/11 12:13:24;;;;;;;11.60;7.00;;;34.30;90.30;;;;;;5099579;28;20044;-75
2023/09/11 12:15:56;;;;;;;15.70;6.45;;;34.50;90.00;;;;;;5103268;28;20069;-77
2023/09/11 12:18:23;;;;;;;17.15;8.18;;;34.50;89.50;;;;;;5072334;28;20040;-74
2023/09/11 12:20:58;;;;;;;12.63;6.47;;;34.60;89.30;;;;;;5096290;28;20091;-75
2023/09/11 12:23:25;;;;;;;13.85;5.35;;;34.60;85.40;;;;;;5102395;28;20058;-74
2023/09/11 12:25:51;;;;;;;15.05;5.28;;;34.40;84.10;;;;;;5084196;28;20044;-74
2023/09/11 12:28:18;;;;;;;;;;;33.90;83.40;;;;;;5088511;28;20077;-73
2023/09/11 12:30:45;;;;;;;10.35;4.88;;;33.60;84.70;;;;;;5089219;28;19997;-75
2023/09/11 12:33:16;;;;;;;12.55;4.75;;;33.70;85.50;;;;;;5078857;28;20044;-75
2023/09/11 12:35:45;;;;;;;11.98;5.15;;;33.70;86.00;;;;;;5094404;28;20093;-75